Time;durP1;ratioP1;P1;durP2;ratioP2;P2;SDS_P1;SDS_P2;PMS_P1;PMS_P2;Temp;Humidity;BMP_temperature;BMP_pressure;BME280_temperature;BME280_humidity;BME280_pressure;Samples;Min_cycle;Max_cycle;Signal;HPM_P1;HPM_P2
2021/08/18 00:00:55;;;;;;;9.52;5.32;;;14.10;99.90;;;;;;5040137;28;20083;-78
2021/08/18 00:03:21;;;;;;;14.43;5.72;;;14.10;99.90;;;;;;5043719;28;20045;-79
2021/08/18 00:05:47;;;;;;;10.27;5.20;;;14.10;99.90;;;;;;5040588;28;20385;-78
2021/08/18 00:08:14;;;;;;;13.32;5.97;;;14.10;99.90;;;;;;5045203;28;20052;-78
2021/08/18 00:10:41;;;;;;;12.45;6.03;;;14.10;99.90;;;;;;5043396;28;20051;-79
2021/08/18 00:13:10;;;;;;;19.48;5.50;;;14.00;99.90;;;;;;5041955;28;20144;-78
2021/08/18 00:15:37;;;;;;;13.50;5.55;;;13.90;99.90;;;;;;5042251;28;20040;-78
2021/08/18 00:18:04;;;;;;;12.90;5.78;;;14.10;99.90;;;;;;5044521;28;20045;-79
2021/08/18 00:20:32;;;;;;;11.07;6.10;;;14.10;99.90;;;;;;5053113;28;20392;-79
2021/08/18 00:22:58;;;;;;;11.90;5.47;;;14.10;99.90;;;;;;5059056;28;20084;-78
2021/08/18 00:25:26;;;;;;;14.18;6.07;;;14.10;99.90;;;;;;5034886;28;20045;-78
2021/08/18 00:27:52;;;;;;;13.95;6.20;;;14.10;99.90;;;;;;5039581;28;20033;-79
2021/08/18 00:30:18;;;;;;;13.48;6.00;;;14.20;99.90;;;;;;5058333;28;20048;-78
2021/08/18 00:32:44;;;;;;;12.45;5.63;;;14.20;99.90;;;;;;5054196;28;20033;-79
2021/08/18 00:35:10;;;;;;;10.95;5.70;;;14.20;99.90;;;;;;5045747;28;20074;-79
2021/08/18 00:37:36;;;;;;;17.52;6.07;;;14.20;99.90;;;;;;5041527;28;20053;-79
2021/08/18 00:40:03;;;;;;;11.85;5.70;;;14.20;99.90;;;;;;5038556;28;20041;-79
2021/08/18 00:42:29;;;;;;;14.35;6.05;;;14.30;99.90;;;;;;5044882;28;20043;-79
2021/08/18 00:44:56;;;;;;;12.70;5.90;;;14.30;99.90;;;;;;5056394;28;20111;-79
2021/08/18 00:47:23;;;;;;;9.98;6.13;;;14.30;99.90;;;;;;5054466;28;20544;-81
2021/08/18 00:49:49;;;;;;;12.57;6.97;;;14.30;99.90;;;;;;5043086;28;20065;-80
2021/08/18 00:52:15;;;;;;;12.05;6.45;;;14.40;99.90;;;;;;5042470;28;20061;-79
2021/08/18 00:54:40;;;;;;;11.32;6.03;;;14.30;99.90;;;;;;5042545;28;20037;-80
2021/08/18 00:57:07;;;;;;;13.05;6.40;;;14.40;99.90;;;;;;5042628;28;20050;-79
2021/08/18 00:59:33;;;;;;;10.32;6.35;;;14.40;99.90;;;;;;5048748;28;20045;-79
2021/08/18 01:02:01;;;;;;;14.50;6.38;;;14.40;99.90;;;;;;5042708;28;20096;-79
2021/08/18 01:04:27;;;;;;;17.65;6.53;;;14.40;99.90;;;;;;5046071;28;20037;-79
2021/08/18 01:06:53;;;;;;;13.20;6.25;;;14.40;99.90;;;;;;5044649;28;20903;-79
2021/08/18 01:09:21;;;;;;;13.65;6.57;;;14.40;99.90;;;;;;5045144;28;20040;-79
2021/08/18 01:11:50;;;;;;;14.70;6.93;;;14.30;99.90;;;;;;5043212;28;21058;-79
2021/08/18 01:14:18;;;;;;;14.82;6.47;;;14.30;99.90;;;;;;5026717;28;20480;-79
2021/08/18 01:16:47;;;;;;;11.30;6.60;;;14.30;99.90;;;;;;5041797;28;20048;-79
2021/08/18 01:19:15;;;;;;;12.25;6.13;;;14.40;99.90;;;;;;5063865;28;20080;-79
2021/08/18 01:21:42;;;;;;;17.50;6.63;;;14.30;99.90;;;;;;5046702;28;20106;-79
2021/08/18 01:24:09;;;;;;;16.10;6.10;;;14.30;99.90;;;;;;5060202;28;20165;-79
2021/08/18 01:26:37;;;;;;;12.80;6.63;;;14.20;99.90;;;;;;5045528;28;20056;-78
2021/08/18 01:29:03;;;;;;;11.10;5.82;;;14.20;99.90;;;;;;5045828;28;20049;-79
2021/08/18 01:31:29;;;;;;;14.52;5.75;;;14.20;99.90;;;;;;5044406;28;20063;-79
2021/08/18 01:33:59;;;;;;;11.65;6.68;;;14.20;99.90;;;;;;5056881;28;20410;-78
2021/08/18 01:36:26;;;;;;;13.23;5.70;;;14.20;99.90;;;;;;5042545;28;20908;-78
2021/08/18 01:38:52;;;;;;;7.75;5.65;;;14.20;99.90;;;;;;5054682;28;20041;-78
2021/08/18 01:41:17;;;;;;;13.57;6.13;;;14.20;99.90;;;;;;5042704;28;20492;-78
2021/08/18 01:43:43;;;;;;;11.55;6.43;;;14.20;99.90;;;;;;5044089;28;20029;-78
2021/08/18 01:46:10;;;;;;;13.48;6.15;;;14.20;99.90;;;;;;5046889;28;20068;-78
2021/08/18 01:48:37;;;;;;;16.67;6.47;;;14.20;99.90;;;;;;5045930;28;20056;-78
2021/08/18 01:51:06;;;;;;;14.80;5.97;;;14.20;99.90;;;;;;5061576;28;20033;-78
2021/08/18 01:53:34;;;;;;;12.27;5.97;;;14.20;99.90;;;;;;5059638;28;20041;-78
2021/08/18 01:56:05;;;;;;;12.65;5.95;;;14.20;99.90;;;;;;5042347;28;20036;-78
2021/08/18 01:58:35;;;;;;;9.65;5.38;;;14.20;99.90;;;;;;5047347;28;20056;-78
2021/08/18 02:01:03;;;;;;;15.75;5.90;;;14.20;99.90;;;;;;5056207;28;20053;-78
2021/08/18 02:03:29;;;;;;;20.50;5.97;;;14.20;99.90;;;;;;5063086;28;20063;-78
2021/08/18 02:05:54;;;;;;;12.68;6.03;;;14.30;99.90;;;;;;5043649;28;20106;-78
2021/08/18 02:08:20;;;;;;;11.27;5.72;;;14.30;99.90;;;;;;5042611;28;20078;-78
2021/08/18 02:10:46;;;;;;;16.63;5.63;;;14.30;99.90;;;;;;5047153;28;20037;-78
2021/08/18 02:13:13;;;;;;;12.45;5.75;;;14.30;99.90;;;;;;5045028;28;20038;-78
2021/08/18 02:15:39;;;;;;;12.55;5.68;;;14.30;99.90;;;;;;5039913;28;20449;-79
2021/08/18 02:18:06;;;;;;;12.75;6.00;;;14.30;99.90;;;;;;5018191;28;20056;-78
2021/08/18 02:20:34;;;;;;;8.75;5.68;;;14.30;99.90;;;;;;5045557;28;20380;-78
2021/08/18 02:23:01;;;;;;;12.75;6.15;;;14.40;99.90;;;;;;5054032;28;20040;-78
2021/08/18 02:25:27;;;;;;;10.85;5.45;;;14.30;99.90;;;;;;5041911;28;20092;-79
2021/08/18 02:27:53;;;;;;;12.00;5.70;;;14.40;99.90;;;;;;5040906;28;20036;-78
2021/08/18 02:30:23;;;;;;;10.85;6.10;;;14.30;99.90;;;;;;5052277;28;20368;-78
2021/08/18 02:32:49;;;;;;;11.80;6.10;;;14.30;99.90;;;;;;5058783;28;20033;-78
2021/08/18 02:35:15;;;;;;;18.08;6.07;;;14.40;99.90;;;;;;5030455;28;20037;-78
2021/08/18 02:37:45;;;;;;;13.88;6.40;;;14.50;99.90;;;;;;5040505;28;20084;-78
2021/08/18 02:40:12;;;;;;;19.95;6.57;;;14.40;99.90;;;;;;5045100;28;20492;-78
2021/08/18 02:42:38;;;;;;;16.70;6.55;;;14.40;99.90;;;;;;5040077;28;20053;-78
2021/08/18 02:45:05;;;;;;;12.35;6.28;;;14.50;99.90;;;;;;5044384;28;20037;-78
2021/08/18 02:47:31;;;;;;;9.15;5.82;;;14.50;99.90;;;;;;5040183;28;20044;-78
2021/08/18 02:49:57;;;;;;;11.75;5.95;;;14.60;99.90;;;;;;5049376;28;20036;-78
2021/08/18 02:52:23;;;;;;;14.43;6.78;;;14.50;99.90;;;;;;5057725;28;20033;-78
2021/08/18 02:54:49;;;;;;;14.00;6.30;;;14.60;99.90;;;;;;5037601;28;20110;-78
2021/08/18 02:57:15;;;;;;;17.08;6.45;;;14.60;99.90;;;;;;5047854;28;20123;-78
2021/08/18 02:59:41;;;;;;;13.80;5.78;;;14.60;99.90;;;;;;5045047;28;20137;-78
2021/08/18 03:02:06;;;;;;;13.63;6.22;;;14.60;99.90;;;;;;5049866;28;20136;-78
2021/08/18 03:04:32;;;;;;;16.58;6.78;;;14.60;99.90;;;;;;5045844;28;20071;-78
2021/08/18 03:06:59;;;;;;;15.85;6.72;;;14.60;99.90;;;;;;5050402;28;20087;-78
2021/08/18 03:09:25;;;;;;;13.18;6.50;;;14.60;99.90;;;;;;5043087;28;20069;-78
2021/08/18 03:11:51;;;;;;;14.38;6.97;;;14.60;99.90;;;;;;5039536;28;20151;-78
2021/08/18 03:14:19;;;;;;;14.57;6.93;;;14.60;99.90;;;;;;5038236;28;20067;-78
2021/08/18 03:16:46;;;;;;;11.75;6.93;;;14.50;99.90;;;;;;5043252;28;20729;-78
2021/08/18 03:19:11;;;;;;;14.98;6.32;;;14.50;99.90;;;;;;5045070;28;20116;-78
2021/08/18 03:21:37;;;;;;;14.95;6.63;;;14.60;99.90;;;;;;5041905;28;20120;-78
2021/08/18 03:24:04;;;;;;;15.18;6.97;;;14.50;99.90;;;;;;5059243;28;20052;-78
2021/08/18 03:26:29;;;;;;;14.88;5.93;;;14.50;99.90;;;;;;5057554;28;20048;-78
2021/08/18 03:28:55;;;;;;;14.25;6.15;;;14.60;99.90;;;;;;5055782;28;20029;-78
2021/08/18 03:31:21;;;;;;;15.90;5.70;;;14.50;99.90;;;;;;5059681;28;20082;-78
2021/08/18 03:33:47;;;;;;;12.52;5.63;;;14.50;99.90;;;;;;5042647;28;20029;-78
2021/08/18 03:36:12;;;;;;;12.52;5.82;;;14.50;99.90;;;;;;5045757;28;20048;-78
2021/08/18 03:38:40;;;;;;;14.15;6.28;;;14.50;99.90;;;;;;5057817;28;20424;-78
2021/08/18 03:41:06;;;;;;;12.60;5.85;;;14.50;99.90;;;;;;5056598;28;20056;-78
2021/08/18 03:43:32;;;;;;;14.95;6.22;;;14.50;99.90;;;;;;5043088;28;20134;-78
2021/08/18 03:45:58;;;;;;;13.48;6.47;;;14.50;99.90;;;;;;5048376;28;20405;-78
2021/08/18 03:48:24;;;;;;;23.88;6.95;;;14.60;99.90;;;;;;5053202;28;20037;-78
2021/08/18 03:50:50;;;;;;;12.50;6.05;;;14.60;99.90;;;;;;5039081;28;20059;-78
2021/08/18 03:53:16;;;;;;;16.30;6.18;;;14.60;99.90;;;;;;5054821;28;20033;-78
2021/08/18 03:55:42;;;;;;;12.60;6.03;;;14.60;99.90;;;;;;5058398;28;20045;-78
2021/08/18 03:58:08;;;;;;;11.73;5.80;;;14.60;99.90;;;;;;5042734;28;20462;-78
2021/08/18 04:00:34;;;;;;;13.90;5.75;;;14.70;99.90;;;;;;5057654;28;20037;-78
2021/08/18 04:03:01;;;;;;;17.05;6.65;;;14.70;99.90;;;;;;5037443;28;20080;-78
2021/08/18 04:05:29;;;;;;;14.27;5.60;;;14.70;99.90;;;;;;5042569;28;20475;-78
2021/08/18 04:07:55;;;;;;;12.95;5.70;;;14.70;99.90;;;;;;5038924;28;20099;-78
2021/08/18 04:10:21;;;;;;;12.23;5.93;;;14.70;99.90;;;;;;5057520;28;20403;-78
2021/08/18 04:12:53;;;;;;;15.70;6.28;;;14.70;99.90;;;;;;5055773;28;20042;-78
2021/08/18 04:15:24;;;;;;;17.08;6.18;;;14.80;99.90;;;;;;5046297;28;20395;-78
2021/08/18 04:17:50;;;;;;;13.65;5.43;;;14.80;99.90;;;;;;5043218;28;20345;-78
2021/08/18 04:20:16;;;;;;;16.25;6.18;;;14.80;99.90;;;;;;5059300;28;20049;-78
2021/08/18 04:22:42;;;;;;;15.80;5.97;;;14.80;99.90;;;;;;5041904;28;20039;-78
2021/08/18 04:25:12;;;;;;;17.42;6.13;;;14.80;99.90;;;;;;5053321;28;20087;-78
2021/08/18 04:27:38;;;;;;;16.13;5.88;;;14.80;99.90;;;;;;5023636;28;20114;-78
2021/08/18 04:30:05;;;;;;;13.60;6.22;;;14.80;99.90;;;;;;5040540;28;20033;-78
2021/08/18 04:32:31;;;;;;;14.02;5.80;;;14.80;99.90;;;;;;5044482;28;20495;-78
2021/08/18 04:34:57;;;;;;;19.70;6.50;;;14.80;99.90;;;;;;5046561;28;20036;-78
2021/08/18 04:37:23;;;;;;;13.50;6.15;;;14.90;99.90;;;;;;5035306;28;20116;-78
2021/08/18 04:39:48;;;;;;;13.15;5.40;;;14.90;99.90;;;;;;5055212;28;20496;-78
2021/08/18 04:42:14;;;;;;;19.65;5.90;;;14.90;99.90;;;;;;5043753;28;20400;-78
2021/08/18 04:44:40;;;;;;;14.68;5.72;;;14.90;99.90;;;;;;5039265;28;20120;-78
2021/08/18 04:47:05;;;;;;;12.00;5.40;;;15.00;99.90;;;;;;5043118;28;20132;-78
2021/08/18 04:49:32;;;;;;;11.13;5.20;;;15.00;99.90;;;;;;5040287;28;20045;-79
2021/08/18 04:51:58;;;;;;;13.50;5.80;;;15.00;99.90;;;;;;5038427;28;20037;-79
2021/08/18 04:54:23;;;;;;;10.52;4.72;;;15.00;99.90;;;;;;5044108;28;20033;-79
2021/08/18 04:56:52;;;;;;;12.65;4.38;;;15.10;99.90;;;;;;5038914;28;20091;-79
2021/08/18 04:59:17;;;;;;;8.45;3.95;;;15.10;99.90;;;;;;5038545;28;20061;-79
2021/08/18 05:01:43;;;;;;;11.48;4.80;;;15.20;99.90;;;;;;5045182;28;20040;-79
2021/08/18 05:04:09;;;;;;;10.35;4.43;;;15.20;99.90;;;;;;5041198;28;20464;-79
2021/08/18 05:06:35;;;;;;;9.73;4.05;;;15.20;99.90;;;;;;5043790;28;20504;-79
2021/08/18 05:09:01;;;;;;;7.78;4.28;;;15.30;99.90;;;;;;5039333;28;20040;-81
2021/08/18 05:11:28;;;;;;;13.55;4.20;;;15.30;99.90;;;;;;5041277;28;20041;-80
2021/08/18 05:13:54;;;;;;;13.32;4.07;;;15.40;99.90;;;;;;5042604;28;20443;-79
2021/08/18 05:16:20;;;;;;;11.00;4.15;;;15.40;99.90;;;;;;5041810;28;20044;-79
2021/08/18 05:18:45;;;;;;;12.90;4.40;;;15.40;99.90;;;;;;5041796;28;20033;-77
2021/08/18 05:21:11;;;;;;;7.03;3.90;;;15.50;99.90;;;;;;5045826;28;20043;-77
2021/08/18 05:23:37;;;;;;;9.07;4.57;;;15.60;99.90;;;;;;5047178;28;20076;-73
2021/08/18 05:26:04;;;;;;;8.77;3.80;;;15.60;99.90;;;;;;5036567;28;20045;-74
2021/08/18 05:28:39;;;;;;;10.82;4.60;;;15.60;99.90;;;;;;5039254;28;20029;-74
2021/08/18 05:31:06;;;;;;;11.75;4.68;;;15.70;99.90;;;;;;5056312;28;20041;-74
2021/08/18 05:33:48;;;;;;;9.15;3.60;;;15.90;99.90;;;;;;5041556;28;20033;-73
2021/08/18 05:36:14;;;;;;;7.88;3.80;;;16.00;99.90;;;;;;5061561;28;20095;-75
2021/08/18 05:38:40;;;;;;;12.23;4.10;;;16.00;99.90;;;;;;5042354;28;20025;-75
2021/08/18 05:41:10;;;;;;;8.05;3.88;;;16.00;99.90;;;;;;5039407;28;20076;-76
2021/08/18 05:43:36;;;;;;;6.68;3.42;;;16.00;99.90;;;;;;5039603;28;20108;-77
2021/08/18 05:46:01;;;;;;;6.57;3.40;;;16.00;99.90;;;;;;5061847;28;20075;-77
2021/08/18 05:48:27;;;;;;;4.75;3.25;;;16.10;99.90;;;;;;5045729;28;20056;-76
2021/08/18 05:50:54;;;;;;;9.70;3.70;;;16.10;99.90;;;;;;5041173;28;20032;-76
2021/08/18 05:53:20;;;;;;;5.78;3.65;;;16.10;99.90;;;;;;5046164;28;20091;-76
2021/08/18 05:55:48;;;;;;;6.72;3.00;;;16.20;99.90;;;;;;5045300;28;20484;-75
2021/08/18 05:58:13;;;;;;;5.93;3.00;;;16.10;99.90;;;;;;5045295;28;20048;-76
2021/08/18 06:00:39;;;;;;;4.68;2.67;;;16.10;99.90;;;;;;5045420;28;20037;-78
2021/08/18 06:03:05;;;;;;;5.45;2.65;;;16.20;99.90;;;;;;5047762;28;20473;-78
2021/08/18 06:05:31;;;;;;;7.85;2.75;;;16.10;99.90;;;;;;5059910;28;20461;-77
2021/08/18 06:07:57;;;;;;;4.40;2.50;;;16.10;99.90;;;;;;5044601;28;20460;-76
2021/08/18 06:10:23;;;;;;;4.45;2.90;;;16.20;99.90;;;;;;5061435;28;20578;-77
2021/08/18 06:12:49;;;;;;;9.43;2.90;;;16.10;99.90;;;;;;5043878;28;20029;-77
2021/08/18 06:15:16;;;;;;;4.95;2.80;;;16.20;99.90;;;;;;5047147;28;20045;-76
2021/08/18 06:17:41;;;;;;;12.07;3.05;;;16.20;99.90;;;;;;5044925;28;20116;-76
2021/08/18 06:20:08;;;;;;;6.97;2.67;;;16.10;99.90;;;;;;5047125;28;20234;-76
2021/08/18 06:22:34;;;;;;;5.25;2.65;;;16.20;99.90;;;;;;5055275;28;20033;-76
2021/08/18 06:25:03;;;;;;;5.65;2.53;;;16.20;99.90;;;;;;5037759;28;20056;-77
2021/08/18 06:27:30;;;;;;;7.47;2.83;;;16.20;99.90;;;;;;5046520;28;20029;-76
2021/08/18 06:29:56;;;;;;;8.38;3.20;;;16.20;99.90;;;;;;5042777;28;20123;-77
2021/08/18 06:32:23;;;;;;;5.35;3.08;;;16.30;99.90;;;;;;5052819;28;20057;-76
2021/08/18 06:34:51;;;;;;;5.03;2.92;;;16.30;99.90;;;;;;5051335;28;20380;-76
2021/08/18 06:37:16;;;;;;;6.40;2.55;;;16.30;99.90;;;;;;5036787;28;20392;-76
2021/08/18 06:39:42;;;;;;;11.75;2.88;;;16.30;99.90;;;;;;5040322;28;20045;-78
2021/08/18 06:42:08;;;;;;;6.28;3.00;;;16.30;99.90;;;;;;5046226;28;20041;-77
2021/08/18 06:44:34;;;;;;;7.03;2.80;;;16.20;99.90;;;;;;5042166;28;20033;-77
2021/08/18 06:46:59;;;;;;;6.60;3.00;;;16.30;99.90;;;;;;5042492;28;20109;-76
2021/08/18 06:49:25;;;;;;;6.63;2.58;;;16.20;99.90;;;;;;5043131;28;20047;-76
2021/08/18 06:51:51;;;;;;;9.77;2.90;;;16.30;99.90;;;;;;5054383;28;20455;-76
2021/08/18 06:54:17;;;;;;;4.95;2.90;;;16.40;99.90;;;;;;5040078;28;20051;-74
2021/08/18 06:56:43;;;;;;;7.13;2.67;;;16.30;99.90;;;;;;5040897;28;20077;-79
2021/08/18 06:59:09;;;;;;;6.05;2.70;;;16.40;99.90;;;;;;5041902;28;20099;-82
2021/08/18 07:01:35;;;;;;;4.72;2.65;;;16.40;99.90;;;;;;5046769;28;20041;-80
2021/08/18 07:04:02;;;;;;;3.05;2.20;;;16.40;99.90;;;;;;5049657;28;20098;-80
2021/08/18 07:06:28;;;;;;;5.15;2.35;;;16.50;99.90;;;;;;5064998;28;20040;-80
2021/08/18 07:08:54;;;;;;;4.25;2.22;;;16.50;99.90;;;;;;5041900;28;20666;-81
2021/08/18 07:11:19;;;;;;;5.78;2.53;;;16.50;99.90;;;;;;5070584;28;20036;-80
2021/08/18 07:13:45;;;;;;;5.60;2.50;;;16.50;99.90;;;;;;5036688;28;20033;-78
2021/08/18 07:16:11;;;;;;;9.00;2.65;;;16.60;99.90;;;;;;5064266;28;20083;-77
2021/08/18 07:18:37;;;;;;;6.80;2.47;;;16.60;99.90;;;;;;5066781;28;20482;-80
2021/08/18 07:21:03;;;;;;;5.45;2.50;;;16.60;99.90;;;;;;5059732;28;20116;-80
2021/08/18 07:23:29;;;;;;;4.47;2.53;;;16.60;99.90;;;;;;5056956;28;20108;-79
2021/08/18 07:25:57;;;;;;;5.72;2.70;;;16.70;99.90;;;;;;5061719;28;20045;-79
2021/08/18 07:28:23;;;;;;;5.13;2.50;;;16.70;99.90;;;;;;5055381;28;20437;-79
2021/08/18 07:30:49;;;;;;;6.60;2.97;;;16.90;99.90;;;;;;5066393;28;20045;-79
2021/08/18 07:33:20;;;;;;;10.40;2.88;;;16.80;99.90;;;;;;5048951;28;20032;-80
2021/08/18 07:35:46;;;;;;;5.32;2.60;;;16.90;99.90;;;;;;5054094;28;20037;-79
2021/08/18 07:38:12;;;;;;;4.63;2.55;;;17.00;99.90;;;;;;5066165;28;20033;-79
2021/08/18 07:40:39;;;;;;;8.70;2.70;;;17.00;99.90;;;;;;5042227;28;20041;-77
2021/08/18 07:43:05;;;;;;;5.90;2.50;;;17.10;99.90;;;;;;5043668;28;20037;-79
2021/08/18 07:45:31;;;;;;;6.47;2.88;;;17.10;99.90;;;;;;5036148;28;20029;-80
2021/08/18 07:47:56;;;;;;;4.70;2.33;;;17.10;99.90;;;;;;5041868;28;20428;-82
2021/08/18 07:50:22;;;;;;;6.57;2.63;;;17.00;99.90;;;;;;5053899;28;20041;-79
2021/08/18 07:52:49;;;;;;;7.07;2.67;;;17.00;99.90;;;;;;5060602;28;20029;-78
2021/08/18 07:55:15;;;;;;;8.15;2.80;;;17.00;99.90;;;;;;5035360;28;20049;-80
2021/08/18 07:57:41;;;;;;;7.30;2.47;;;17.00;99.90;;;;;;5062874;28;20048;-78
2021/08/18 08:00:07;;;;;;;5.88;2.72;;;17.00;99.90;;;;;;5031371;28;20087;-79
2021/08/18 08:02:33;;;;;;;7.30;2.90;;;17.10;99.90;;;;;;5040882;28;20131;-80
2021/08/18 08:05:03;;;;;;;6.72;2.80;;;17.20;99.90;;;;;;5042073;28;20174;-80
2021/08/18 08:07:29;;;;;;;6.53;2.47;;;17.30;99.90;;;;;;5035200;28;20037;-81
2021/08/18 08:10:12;;;;;;;7.00;2.80;;;17.40;99.90;;;;;;5056674;28;20052;-76
2021/08/18 08:12:38;;;;;;;7.45;2.45;;;17.50;99.90;;;;;;5024779;28;20424;-77
2021/08/18 08:15:06;;;;;;;5.68;2.25;;;17.70;99.90;;;;;;5064748;28;20037;-77
2021/08/18 08:17:32;;;;;;;8.00;2.08;;;17.80;99.90;;;;;;5048703;28;20041;-78
2021/08/18 08:19:58;;;;;;;8.32;2.72;;;17.90;99.90;;;;;;5047462;28;20340;-79
2021/08/18 08:22:24;;;;;;;9.20;2.50;;;18.00;99.90;;;;;;5040305;28;20063;-79
2021/08/18 08:24:50;;;;;;;7.20;2.17;;;18.10;99.90;;;;;;5046599;28;20029;-79
2021/08/18 08:27:16;;;;;;;6.30;2.10;;;18.20;99.90;;;;;;5041874;28;20087;-80
2021/08/18 08:29:42;;;;;;;7.82;2.65;;;18.20;99.90;;;;;;5060120;28;20044;-78
2021/08/18 08:32:08;;;;;;;6.07;1.88;;;18.30;99.90;;;;;;5042314;28;20496;-79
2021/08/18 08:34:34;;;;;;;10.32;2.35;;;18.20;99.90;;;;;;5043382;28;20061;-80
2021/08/18 08:37:00;;;;;;;4.97;2.05;;;18.20;99.90;;;;;;5045011;28;20128;-80
2021/08/18 08:39:26;;;;;;;7.03;2.10;;;18.20;99.90;;;;;;5053178;28;20495;-80
2021/08/18 08:41:52;;;;;;;6.15;2.25;;;18.20;99.90;;;;;;5048399;28;20041;-81
2021/08/18 08:44:20;;;;;;;4.88;2.30;;;18.30;99.90;;;;;;5058743;28;20047;-81
2021/08/18 08:46:52;;;;;;;6.10;2.45;;;18.30;99.90;;;;;;5051363;28;20391;-79
2021/08/18 08:49:19;;;;;;;4.20;2.22;;;18.50;99.90;;;;;;5076939;28;20056;-79
2021/08/18 08:51:46;;;;;;;5.07;2.25;;;18.60;99.90;;;;;;5064569;28;20033;-79
2021/08/18 08:54:13;;;;;;;4.40;1.90;;;18.70;99.90;;;;;;5042727;28;20041;-79
2021/08/18 08:56:39;;;;;;;4.18;1.75;;;18.80;99.90;;;;;;5058235;28;20041;-79
2021/08/18 08:59:05;;;;;;;8.32;2.38;;;18.80;99.90;;;;;;5051474;28;20041;-79
2021/08/18 09:02:02;;;;;;;4.57;2.38;;;18.90;99.90;;;;;;5059421;28;20079;-79
2021/08/18 09:04:29;;;;;;;8.93;2.35;;;18.90;99.90;;;;;;5070423;28;20102;-79
2021/08/18 09:07:14;;;;;;;4.32;2.40;;;18.80;99.90;;;;;;5037771;28;20780;-78
2021/08/18 09:09:43;;;;;;;6.18;2.78;;;18.80;99.90;;;;;;5060553;28;20032;-79
2021/08/18 09:12:14;;;;;;;10.20;3.20;;;18.90;99.90;;;;;;5046125;28;20045;-79
2021/08/18 09:14:41;;;;;;;4.20;2.80;;;19.00;99.90;;;;;;5050357;28;20515;-79
2021/08/18 09:17:29;;;;;;;4.85;2.90;;;19.00;99.90;;;;;;5047972;28;20045;-77
2021/08/18 09:20:18;;;;;;;6.18;2.70;;;19.00;99.90;;;;;;5045573;28;21245;-80
2021/08/18 09:22:46;;;;;;;5.15;2.60;;;19.20;99.90;;;;;;5047378;28;20048;-80
2021/08/18 09:25:23;;;;;;;8.30;3.10;;;19.20;99.90;;;;;;5049471;28;20045;-81
2021/08/18 09:27:54;;;;;;;14.60;3.25;;;19.40;99.90;;;;;;5063074;28;20057;-79
2021/08/18 09:30:27;;;;;;;7.30;3.13;;;19.50;99.90;;;;;;5060277;28;20049;-79
2021/08/18 09:32:55;;;;;;;6.75;3.63;;;19.60;99.90;;;;;;5048339;28;20056;-81
2021/08/18 09:35:22;;;;;;;7.20;3.22;;;19.60;99.90;;;;;;5050983;28;20041;-84
2021/08/18 09:38:04;;;;;;;4.53;3.05;;;19.60;99.90;;;;;;5047268;28;20053;-84
2021/08/18 09:40:33;;;;;;;6.03;3.40;;;19.70;99.90;;;;;;5057278;28;20037;-82
2021/08/18 09:43:16;;;;;;;8.27;3.20;;;19.70;99.90;;;;;;5042163;28;20074;-84
2021/08/18 09:45:55;;;;;;;4.47;2.97;;;19.70;99.90;;;;;;5052137;28;20123;-84
2021/08/18 09:48:24;;;;;;;8.45;3.25;;;19.70;99.90;;;;;;5059976;28;20090;-84
2021/08/18 09:51:03;;;;;;;6.60;3.15;;;19.70;99.90;;;;;;5053400;28;20043;-83
2021/08/18 09:53:33;;;;;;;8.50;4.20;;;19.70;99.90;;;;;;5053031;28;20372;-81
2021/08/18 09:56:13;;;;;;;7.47;3.72;;;19.80;99.90;;;;;;5053996;28;20044;-80
2021/08/18 09:58:40;;;;;;;8.15;3.75;;;19.70;99.90;;;;;;5050495;28;20441;-82
2021/08/18 10:01:08;;;;;;;5.88;4.00;;;19.70;99.90;;;;;;5045443;28;20116;-84
2021/08/18 10:03:34;;;;;;;8.88;4.40;;;19.70;99.90;;;;;;5042950;28;20029;-81
2021/08/18 10:06:01;;;;;;;9.52;4.25;;;19.70;99.90;;;;;;5038526;28;20038;-84
2021/08/18 10:08:28;;;;;;;11.93;4.53;;;19.70;99.90;;;;;;5047965;28;20030;-81
2021/08/18 10:10:54;;;;;;;10.98;4.68;;;19.70;99.90;;;;;;5039748;28;20045;-83
2021/08/18 10:13:22;;;;;;;6.22;4.40;;;19.50;99.90;;;;;;5067937;28;20047;-83
2021/08/18 10:15:49;;;;;;;9.15;4.78;;;19.30;99.90;;;;;;5052367;28;20034;-82
2021/08/18 10:18:32;;;;;;;9.00;4.95;;;19.10;99.90;;;;;;5033783;28;20034;-82
2021/08/18 10:21:07;;;;;;;7.18;5.10;;;19.00;99.90;;;;;;5049389;28;20044;-83
2021/08/18 10:23:40;;;;;;;;;;;19.10;99.90;;;;;;5069013;28;20041;-82
2021/08/18 10:26:06;;;;;;;9.50;5.50;;;19.30;99.90;;;;;;5061434;28;19917;-81
2021/08/18 10:29:06;;;;;;;8.95;6.00;;;19.60;99.90;;;;;;5053445;28;20037;-81
2021/08/18 10:31:41;;;;;;;10.82;5.88;;;19.70;99.90;;;;;;5052130;28;20037;-79
2021/08/18 10:34:23;;;;;;;11.05;5.70;;;20.00;99.90;;;;;;5050274;28;20041;-85
2021/08/18 10:36:52;;;;;;;10.55;6.22;;;20.20;99.90;;;;;;5036231;28;20037;-81
2021/08/18 10:39:18;;;;;;;11.02;6.20;;;20.30;99.90;;;;;;5031242;28;20828;-81
2021/08/18 10:41:59;;;;;;;10.73;6.20;;;20.60;99.90;;;;;;5032109;28;20045;-81
2021/08/18 10:44:46;;;;;;;12.70;5.80;;;20.60;99.90;;;;;;5041024;28;20436;-80
2021/08/18 10:47:28;;;;;;;13.77;5.38;;;20.70;99.90;;;;;;5046537;28;20048;-85
2021/08/18 10:49:59;;;;;;;11.90;5.75;;;20.60;99.90;;;;;;5036178;28;20116;-80
2021/08/18 10:52:28;;;;;;;7.72;5.40;;;20.40;99.90;;;;;;5050238;28;20037;-82
2021/08/18 10:55:11;;;;;;;10.80;5.55;;;20.40;99.90;;;;;;5045900;28;20035;-80
2021/08/18 10:57:50;;;;;;;12.30;5.68;;;20.30;99.90;;;;;;5060461;28;20130;-79
2021/08/18 11:00:25;;;;;;;9.63;5.28;;;20.10;99.90;;;;;;5028725;28;20472;-80
2021/08/18 11:02:53;;;;;;;10.75;6.22;;;20.10;99.90;;;;;;5065397;28;20099;-80
2021/08/18 11:05:23;;;;;;;10.93;6.03;;;20.00;99.90;;;;;;5049889;28;20159;-81
2021/08/18 11:08:12;;;;;;;10.93;5.50;;;20.10;99.90;;;;;;5049706;28;20045;-80
2021/08/18 11:10:53;;;;;;;7.68;5.15;;;20.20;99.90;;;;;;5054284;28;20407;-81
2021/08/18 11:13:46;;;;;;;9.02;5.63;;;20.40;99.90;;;;;;5050621;28;20029;-79
2021/08/18 11:16:26;;;;;;;9.95;5.45;;;20.50;99.90;;;;;;5045987;28;20057;-79
2021/08/18 11:18:56;;;;;;;25.85;5.28;;;20.60;99.90;;;;;;5051526;28;20037;-80
2021/08/18 11:21:27;;;;;;;15.25;4.85;;;20.70;99.90;;;;;;5064861;28;20053;-80
2021/08/18 11:24:02;;;;;;;11.98;4.80;;;20.70;99.90;;;;;;5041749;28;20144;-79
2021/08/18 11:26:29;;;;;;;;;;;20.60;99.90;;;;;;5054217;28;20111;-79
2021/08/18 11:29:07;;;;;;;13.98;4.75;;;20.30;99.90;;;;;;5061423;28;20008;-80
2021/08/18 11:31:51;;;;;;;7.13;4.65;;;20.10;99.90;;;;;;5067425;28;20052;-79
2021/08/18 11:34:19;;;;;;;9.27;4.57;;;19.90;99.90;;;;;;5061563;28;20471;-81
2021/08/18 11:36:46;;;;;;;8.05;4.82;;;19.70;99.90;;;;;;5043292;28;20050;-83
2021/08/18 11:39:14;;;;;;;7.55;4.13;;;19.60;99.90;;;;;;5052386;28;20126;-81
2021/08/18 11:41:45;;;;;;;9.80;4.32;;;19.60;99.90;;;;;;5062331;28;20032;-80
2021/08/18 11:44:26;;;;;;;8.73;4.15;;;19.50;99.90;;;;;;5058134;28;20087;-83
2021/08/18 11:46:52;;;;;;;7.57;3.95;;;19.40;99.90;;;;;;5052960;28;20065;-82
2021/08/18 11:49:23;;;;;;;7.65;3.75;;;19.40;99.90;;;;;;5055244;28;20041;-82
2021/08/18 11:51:49;;;;;;;7.95;4.03;;;19.40;99.90;;;;;;5067587;28;20049;-82
2021/08/18 11:54:14;;;;;;;8.57;3.78;;;19.60;99.90;;;;;;5052241;28;20059;-83
2021/08/18 11:56:40;;;;;;;8.07;3.30;;;19.90;99.90;;;;;;5052288;28;20048;-83
2021/08/18 11:59:09;;;;;;;7.78;3.78;;;19.90;99.90;;;;;;5059421;28;20032;-82
2021/08/18 12:01:35;;;;;;;5.97;3.20;;;20.10;99.90;;;;;;5045116;28;20034;-82
2021/08/18 12:04:03;;;;;;;5.88;3.25;;;20.20;99.90;;;;;;5030573;28;20440;-82
2021/08/18 12:06:34;;;;;;;5.05;3.10;;;20.40;99.90;;;;;;5042398;28;20102;-83
2021/08/18 12:09:03;;;;;;;5.30;3.15;;;20.60;99.90;;;;;;5031822;28;20496;-82
2021/08/18 12:11:32;;;;;;;3.90;2.90;;;20.70;99.90;;;;;;5068135;28;20102;-83
2021/08/18 12:14:08;;;;;;;4.47;2.97;;;20.90;99.90;;;;;;5068528;28;20514;-84
2021/08/18 12:16:34;;;;;;;5.82;3.28;;;21.20;99.90;;;;;;5057589;28;20060;-84
2021/08/18 12:19:26;;;;;;;5.03;3.33;;;21.30;99.90;;;;;;5050029;28;20502;-84
2021/08/18 12:22:07;;;;;;;6.38;3.50;;;21.30;99.90;;;;;;5051672;28;20392;-83
2021/08/18 12:24:34;;;;;;;6.88;3.40;;;21.20;99.90;;;;;;5068858;28;20048;-82
2021/08/18 12:27:37;;;;;;;8.73;4.22;;;21.00;99.90;;;;;;5055906;28;20495;-84
2021/08/18 12:30:12;;;;;;;8.57;4.63;;;20.80;99.90;;;;;;5050143;28;20057;-82
2021/08/18 12:32:39;;;;;;;9.38;5.10;;;20.40;99.90;;;;;;5051279;28;20053;-79
2021/08/18 12:35:10;;;;;;;10.75;5.43;;;20.20;99.90;;;;;;5050474;28;20432;-80
2021/08/18 12:37:42;;;;;;;7.97;5.47;;;20.10;99.90;;;;;;5068857;28;20056;-81
2021/08/18 12:40:22;;;;;;;10.75;5.13;;;20.30;99.90;;;;;;5065689;28;20044;-81
2021/08/18 12:42:58;;;;;;;11.07;6.07;;;20.20;99.90;;;;;;5067978;28;20055;-80
2021/08/18 12:45:26;;;;;;;10.23;5.95;;;20.30;99.90;;;;;;5048873;28;20491;-81
2021/08/18 12:47:53;;;;;;;13.05;6.35;;;20.30;99.90;;;;;;5056255;28;20048;-81
2021/08/18 12:50:26;;;;;;;13.88;6.35;;;20.30;99.90;;;;;;5044499;28;20523;-82